createdAt,value
2019-04-26T00:00:42.893Z,98438.69
2019-04-26T00:03:16.245Z,98434.50
2019-04-26T00:06:08.993Z,98434.50
2019-04-26T00:26:15.567Z,98463.39
2019-04-26T00:29:03.386Z,98475.31
2019-04-26T00:31:54.029Z,98481.20
2019-04-26T00:34:24.439Z,98487.09
2019-04-26T00:36:54.681Z,98500.45
2019-04-26T00:39:45.640Z,98493.35
2019-04-26T00:42:16.546Z,98487.91
2019-04-26T00:44:59.918Z,98483.75
2019-04-26T00:48:09.193Z,98486.19
2019-04-26T00:59:45.530Z,98499.82
2019-04-26T01:02:46.113Z,98500.69
2019-04-26T01:10:57.258Z,98515.22
2019-04-26T01:13:58.231Z,98517.37
2019-04-26T01:16:30.116Z,98503.73
2019-04-26T01:22:01.132Z,98511.14
2019-04-26T01:24:35.583Z,98513.02
2019-04-26T07:58:21.017Z,98735.39
2019-04-26T08:01:04.012Z,98762.92
2019-04-26T08:06:52.278Z,98772.54
2019-04-26T08:09:46.210Z,98780.55
2019-04-26T08:18:49.914Z,98796.02
2019-04-26T08:21:52.121Z,98693.08
2019-04-26T08:24:33.634Z,98769.83
2019-04-26T08:30:24.692Z,98764.31
2019-04-26T08:36:07.605Z,98762.89
2019-04-26T08:44:59.708Z,98759.02
2019-04-26T08:50:46.083Z,98756.32
2019-04-26T08:53:27.420Z,98758.94
2019-04-26T08:56:20.338Z,98753.13
2019-04-26T08:59:28.785Z,98761.55
2019-04-26T09:13:51.348Z,98787.34
2019-04-26T09:16:50.196Z,98790.41
2019-04-26T09:19:12.912Z,98698.75
2019-04-26T09:22:22.572Z,98794.52
2019-04-26T09:30:42.409Z,98809.06
2019-04-26T09:33:45.631Z,98802.05
2019-04-26T09:36:54.658Z,98805.53
2019-04-26T09:43:05.053Z,98834.89
2019-04-26T09:48:38.315Z,98845.91
2019-04-26T09:51:09.671Z,98844.63
2019-04-26T09:53:43.457Z,98857.23
2019-04-26T09:56:12.029Z,98850.72
2019-04-26T09:58:42.472Z,98866.20
2019-04-26T10:01:13.052Z,98860.69
2019-04-26T10:03:43.746Z,98865.22
2019-04-26T10:06:15.084Z,98858.75
2019-04-26T10:08:47.105Z,98853.83
2019-04-26T10:11:21.925Z,98856.51
2019-04-26T10:14:00.567Z,98854.33
2019-04-26T10:16:46.505Z,98857.95
2019-04-26T10:19:22.327Z,98862.11
2019-04-26T10:21:53.076Z,98861.62
2019-04-26T10:24:23.360Z,98860.33
2019-04-26T10:26:55.475Z,98850.30
2019-04-26T10:29:26.732Z,98873.23
2019-04-26T10:31:58.164Z,98856.22
2019-04-26T10:34:28.654Z,98864.60
2019-04-26T10:37:01.559Z,98862.22
2019-04-26T10:39:36.914Z,98864.27
2019-04-26T10:42:09.130Z,98869.34
2019-04-26T10:44:41.003Z,98864.81
2019-04-26T10:47:11.265Z,98857.59
2019-04-26T10:49:49.309Z,98855.39
2019-04-26T10:52:49.672Z,98871.08
2019-04-26T10:55:37.199Z,98867.16
2019-04-26T10:58:17.135Z,98879.95
2019-04-26T11:00:52.748Z,98871.50
2019-04-26T11:03:21.934Z,98880.59
2019-04-26T11:05:53.664Z,98826.78
2019-04-26T11:08:25.056Z,98882.34
2019-04-26T11:10:58.324Z,98884.84
2019-04-26T11:13:29.873Z,98875.76
2019-04-26T11:16:02.482Z,98884.42
2019-04-26T11:18:34.937Z,98876.94
2019-04-26T11:24:19.431Z,98880.78
2019-04-26T11:30:20.365Z,98878.70
2019-04-26T11:33:22.760Z,98882.70
2019-04-26T11:35:52.955Z,98879.67
2019-04-26T11:41:28.035Z,98878.02
2019-04-26T11:47:54.337Z,98888.70
2019-04-26T11:50:52.198Z,98880.36
2019-04-26T11:53:23.659Z,98895.34
2019-04-26T11:55:54.596Z,98899.23
2019-04-26T11:58:24.578Z,98899.06
2019-04-26T12:00:59.452Z,98900.64
2019-04-26T12:03:30.654Z,98900.05
2019-04-26T12:06:10.783Z,98893.52
2019-04-26T12:08:55.289Z,98917.58
2019-04-26T12:11:34.114Z,98924.43
2019-04-26T12:13:59.479Z,98937.23
2019-04-26T12:16:29.878Z,98918.27
2019-04-26T12:19:00.079Z,98932.05
2019-04-26T12:21:33.731Z,98942.33
2019-04-26T12:24:02.552Z,98946.08
2019-04-26T12:26:42.278Z,98938.34
2019-04-26T12:29:05.653Z,98946.34
2019-04-26T12:31:35.775Z,98945.97
2019-04-26T12:34:05.911Z,98956.92
2019-04-26T12:36:36.921Z,98959.80
2019-04-26T12:39:09.906Z,98955.26
2019-04-26T12:41:40.955Z,98958.52
2019-04-26T12:44:15.138Z,98954.06
2019-04-26T12:47:05.145Z,98945.63
2019-04-26T12:49:35.593Z,98954.66
2019-04-26T12:52:07.177Z,98866.06
2019-04-26T12:54:38.975Z,98965.09
2019-04-26T12:57:09.452Z,98967.52
2019-04-26T12:59:44.388Z,98972.08
2019-04-26T13:02:16.529Z,98972.08
2019-04-26T13:04:45.545Z,98962.55
2019-04-26T13:07:23.885Z,98977.38
2019-04-26T13:10:26.734Z,98973.14
2019-04-26T13:13:07.304Z,98974.71
2019-04-26T13:16:08.406Z,98958.05
2019-04-26T13:18:45.124Z,98955.92
2019-04-26T13:21:16.796Z,98962.27
2019-04-26T13:23:48.297Z,98958.05
2019-04-26T13:26:19.150Z,98874.10
2019-04-26T13:28:52.476Z,98959.10
2019-04-26T13:31:23.353Z,98960.08
2019-04-26T13:34:06.252Z,98972.08
2019-04-26T13:36:39.643Z,98982.39
2019-04-26T13:39:17.904Z,98987.96
2019-04-26T13:42:02.179Z,98987.69
2019-04-26T13:44:41.617Z,98982.94
2019-04-26T13:47:34.134Z,98987.72
2019-04-26T13:50:16.010Z,98986.91
2019-04-26T13:52:48.864Z,98983.72
2019-04-26T13:55:18.983Z,98986.08
2019-04-26T13:57:50.799Z,98987.16
2019-04-26T14:00:25.752Z,98995.36
2019-04-26T14:02:54.773Z,98991.88
2019-04-26T14:05:23.374Z,98909.20
2019-04-26T14:07:56.023Z,99008.06
2019-04-26T14:10:31.868Z,99013.62
2019-04-26T14:13:04.102Z,99030.48
2019-04-26T14:15:35.295Z,99032.09
2019-04-26T14:18:08.646Z,99042.91
2019-04-26T14:20:41.449Z,98945.31
2019-04-26T14:23:36.917Z,99030.96
2019-04-26T14:26:19.797Z,99040.20
2019-04-26T14:28:54.216Z,99038.50
2019-04-26T14:31:24.466Z,99040.56
2019-04-26T14:33:54.814Z,99044.02
2019-04-26T14:36:26.699Z,99041.03
2019-04-26T14:39:05.614Z,99041.58
2019-04-26T14:41:30.837Z,98959.34
2019-04-26T14:44:15.361Z,99041.08
2019-04-26T14:46:48.959Z,99033.16
2019-04-26T14:49:19.293Z,99019.09
2019-04-26T14:51:53.906Z,99016.47
2019-04-26T14:54:23.586Z,99009.08
2019-04-26T14:56:54.953Z,99009.52
2019-04-26T14:59:45.534Z,99019.59
2019-04-26T15:02:36.367Z,99012.20
2019-04-26T15:05:29.346Z,99021.43
2019-04-26T15:08:03.905Z,99010.38
2019-04-26T15:10:45.684Z,99010.17
2019-04-26T15:13:19.996Z,99016.55
2019-04-26T15:15:46.021Z,98935.89
2019-04-26T15:18:16.269Z,99031.52
2019-04-26T15:20:57.088Z,99031.42
2019-04-26T15:23:32.874Z,99032.92
2019-04-26T15:26:09.140Z,99041.33
2019-04-26T15:28:43.677Z,99047.86
2019-04-26T15:31:13.093Z,99017.89
2019-04-26T15:33:48.858Z,99047.37
2019-04-26T15:36:18.045Z,99059.15
2019-04-26T15:38:49.580Z,99065.98
2019-04-26T15:41:47.084Z,98989.65
2019-04-26T15:44:33.470Z,99080.47
2019-04-26T15:47:34.346Z,99084.30
2019-04-26T15:50:19.092Z,99084.42
2019-04-26T15:52:54.479Z,99096.11
2019-04-26T15:55:26.027Z,99099.41
2019-04-26T15:58:02.664Z,99106.58
2019-04-26T16:00:35.927Z,99040.34
2019-04-26T16:03:08.203Z,99123.67
2019-04-26T16:05:40.162Z,99120.30
2019-04-26T16:08:18.545Z,99026.67
2019-04-26T16:10:53.309Z,99109.80
2019-04-26T16:13:24.318Z,99127.55
2019-04-26T16:15:59.320Z,99135.58
2019-04-26T16:18:30.122Z,99150.28
2019-04-26T16:21:01.974Z,99140.91
2019-04-26T16:23:41.124Z,99145.13
2019-04-26T16:26:14.305Z,99053.47
2019-04-26T16:29:18.468Z,99143.88
2019-04-26T16:32:16.925Z,99153.31
2019-04-26T16:34:47.665Z,99162.09
2019-04-26T16:37:28.572Z,99080.97
2019-04-26T16:39:59.411Z,99168.67
2019-04-26T16:42:31.936Z,99184.45
2019-04-26T16:45:07.942Z,99173.55
2019-04-26T16:47:48.767Z,99204.12
2019-04-26T16:50:31.363Z,99116.40
2019-04-26T16:53:00.248Z,99209.23
2019-04-26T16:55:53.267Z,99210.02
2019-04-26T16:58:45.399Z,99205.11
2019-04-26T17:01:53.886Z,99215.06
2019-04-26T17:07:43.724Z,99201.00
2019-04-26T17:13:36.219Z,99224.91
2019-04-26T17:16:44.733Z,99235.33
2019-04-26T17:27:44.207Z,99148.61
2019-04-26T17:30:26.039Z,99246.83
2019-04-26T17:33:06.186Z,99245.01
2019-04-26T17:36:17.731Z,99252.42
2019-04-26T17:39:10.978Z,99241.27
2019-04-26T17:41:50.673Z,99251.55
2019-04-26T17:47:32.996Z,99256.59
2019-04-26T17:50:26.242Z,99255.50
2019-04-26T17:59:10.366Z,99257.32
2019-04-26T18:01:57.289Z,99251.12
2019-04-26T18:04:34.403Z,99258.70
2019-04-26T18:07:33.738Z,99263.45
2019-04-26T18:09:43.963Z,99263.94
2019-04-26T18:12:11.991Z,99263.43
2019-04-26T18:14:42.701Z,99263.94
2019-04-26T18:17:40.248Z,99113.03
2019-04-26T18:20:37.391Z,99271.59
2019-04-26T18:23:18.571Z,99272.41
2019-04-26T18:25:49.018Z,99286.32
2019-04-26T18:28:22.765Z,99292.37
2019-04-26T18:31:01.181Z,99293.90
2019-04-26T18:33:35.688Z,99294.11
2019-04-26T18:36:07.735Z,99300.95
2019-04-26T18:38:37.657Z,99299.66
2019-04-26T18:41:29.898Z,99303.45
2019-04-26T18:44:35.382Z,99312.63
2019-04-26T18:47:28.551Z,99313.22
2019-04-26T18:56:21.820Z,99322.25
2019-04-26T19:01:48.303Z,99329.10
2019-04-26T19:19:26.028Z,99337.69
2019-04-26T19:25:22.945Z,99333.75
2019-04-26T19:28:09.662Z,99323.38
2019-04-26T19:33:47.719Z,99323.34
2019-04-26T19:36:59.848Z,99328.05
2019-04-26T19:39:35.048Z,99321.19
2019-04-26T19:42:05.981Z,99329.11
2019-04-26T19:44:37.470Z,99333.72
2019-04-26T19:47:28.190Z,99342.31
2019-04-26T19:50:17.158Z,99337.48
2019-04-26T19:53:16.441Z,99338.92
2019-04-26T20:07:28.225Z,99331.37
2019-04-26T20:16:23.296Z,99344.92
2019-04-26T20:22:28.517Z,99347.28
2019-04-26T20:25:08.316Z,99336.98
2019-04-26T20:34:01.615Z,99324.20
2019-04-26T20:36:47.586Z,99330.81
2019-04-26T20:42:05.165Z,99333.41
2019-04-26T20:45:08.493Z,99327.34
2019-04-26T20:54:03.917Z,99327.09
2019-04-26T20:56:35.550Z,99328.05
2019-04-26T20:59:06.936Z,99330.67
2019-04-26T21:01:37.110Z,99318.48
2019-04-26T21:10:25.733Z,99315.44
2019-04-26T21:13:15.283Z,99322.59
2019-04-26T21:28:29.057Z,99311.27
2019-04-26T21:31:31.147Z,99309.74
2019-04-26T21:34:12.547Z,99306.70
2019-04-26T21:37:11.333Z,99319.60
2019-04-26T21:40:23.242Z,99327.44
2019-04-26T22:04:16.629Z,99318.63
2019-04-26T22:07:28.126Z,99331.41
2019-04-26T22:15:59.434Z,99345.61
2019-04-26T22:18:50.525Z,99340.53
2019-04-26T22:21:29.841Z,99329.84
2019-04-26T22:24:10.603Z,99334.67
2019-04-26T22:26:44.541Z,99335.81
2019-04-26T22:29:16.664Z,99336.15
2019-04-26T22:31:45.893Z,99333.89
2019-04-26T22:34:16.270Z,99334.33
2019-04-26T22:36:46.674Z,99330.73
2019-04-26T22:39:20.618Z,99318.91
2019-04-26T22:41:51.257Z,99327.42
2019-04-26T22:44:40.736Z,99335.09
2019-04-26T22:47:33.923Z,99336.95
2019-04-26T22:50:02.240Z,99333.31
2019-04-26T22:52:33.693Z,99333.48
2019-04-26T22:55:06.663Z,99338.27
2019-04-26T22:57:37.203Z,99335.77
2019-04-26T23:00:13.056Z,99336.01
2019-04-26T23:02:45.713Z,99332.72
2019-04-26T23:05:15.964Z,99330.82
2019-04-26T23:07:46.115Z,99332.86
2019-04-26T23:10:17.314Z,99327.09
2019-04-26T23:13:09.336Z,99318.66
2019-04-26T23:15:55.352Z,99323.28
2019-04-26T23:18:46.422Z,99328.44
2019-04-26T23:21:35.779Z,99324.41
2019-04-26T23:24:11.516Z,99323.55
2019-04-26T23:26:41.701Z,99322.63
2019-04-26T23:29:16.243Z,99319.95
2019-04-26T23:31:45.812Z,99317.95
2019-04-26T23:34:15.890Z,99318.85
2019-04-26T23:36:49.062Z,99315.03
2019-04-26T23:39:20.477Z,99321.42
2019-04-26T23:41:50.424Z,99306.02
2019-04-26T23:44:20.480Z,99304.48
2019-04-26T23:46:50.538Z,99299.56
2019-04-26T23:49:20.642Z,99303.06
2019-04-26T23:51:50.744Z,99299.23
2019-04-26T23:54:20.747Z,99289.12
2019-04-26T23:56:55.686Z,99286.31
2019-04-26T23:59:22.443Z,99279.56
